createdAt,value
2023-01-29T00:01:14.779Z,-2.99
2023-01-29T00:03:45.632Z,-3.01
2023-01-29T00:06:16.160Z,-3.03
2023-01-29T00:08:47.965Z,-3.05
2023-01-29T00:11:20.553Z,-3.06
2023-01-29T00:13:51.900Z,-3.03
2023-01-29T00:16:23.230Z,-2.99
2023-01-29T00:18:54.405Z,-2.94
2023-01-29T00:21:25.823Z,-2.90
2023-01-29T00:23:57.648Z,-2.87
2023-01-29T00:26:29.412Z,-2.87
2023-01-29T00:29:02.954Z,-2.87
2023-01-29T00:31:34.687Z,-2.88
2023-01-29T00:34:05.612Z,-2.90
2023-01-29T00:36:37.013Z,-2.92
2023-01-29T00:44:46.471Z,-2.97
2023-01-29T00:47:34.659Z,-3.03
2023-01-29T00:50:08.730Z,-3.08
2023-01-29T00:52:41.317Z,-3.13
2023-01-29T00:55:14.400Z,-3.13
2023-01-29T00:57:45.829Z,-3.12
2023-01-29T01:03:15.804Z,-3.09
2023-01-29T01:05:53.723Z,-3.10
2023-01-29T01:08:42.332Z,-3.11
2023-01-29T01:11:13.855Z,-3.11
2023-01-29T01:13:45.490Z,-3.12
2023-01-29T01:16:21.090Z,-3.12
2023-01-29T01:18:53.162Z,-3.14
2023-01-29T01:21:24.706Z,-3.15
2023-01-29T01:24:03.439Z,-3.16
2023-01-29T01:26:35.288Z,-3.18
2023-01-29T01:29:07.116Z,-3.20
2023-01-29T01:31:38.430Z,-3.22
2023-01-29T01:34:15.135Z,-3.24
2023-01-29T01:36:46.918Z,-3.23
2023-01-29T01:39:18.284Z,-3.20
2023-01-29T01:41:52.448Z,-3.19
2023-01-29T01:49:16.077Z,-3.21
2023-01-29T01:51:51.514Z,-3.24
2023-01-29T01:54:26.100Z,-3.29
2023-01-29T01:57:09.907Z,-3.34
2023-01-29T01:59:43.542Z,-3.40
2023-01-29T02:02:32.934Z,-3.47
2023-01-29T02:05:23.897Z,-3.54
2023-01-29T02:08:13.428Z,-3.61
2023-01-29T02:10:48.787Z,-3.69
2023-01-29T02:13:19.982Z,-3.75
2023-01-29T02:15:54.168Z,-3.81
2023-01-29T02:18:25.903Z,-3.85
2023-01-29T02:21:10.702Z,-3.85
2023-01-29T02:24:14.816Z,-3.85
2023-01-29T02:26:57.037Z,-3.85
2023-01-29T02:29:35.549Z,-3.87
2023-01-29T02:32:15.508Z,-3.90
2023-01-29T02:35:07.817Z,-3.90
2023-01-29T02:37:41.769Z,-3.90
2023-01-29T02:40:23.147Z,-3.88
2023-01-29T02:43:01.566Z,-3.86
2023-01-29T02:45:36.821Z,-3.85
2023-01-29T02:48:08.354Z,-3.84
2023-01-29T02:50:43.389Z,-3.82
2023-01-29T02:53:18.729Z,-3.78
2023-01-29T02:55:53.094Z,-3.73
2023-01-29T02:58:31.048Z,-3.71
2023-01-29T03:01:06.621Z,-3.70
2023-01-29T03:03:42.140Z,-3.72
2023-01-29T03:06:22.824Z,-3.76
2023-01-29T03:08:58.113Z,-3.81
2023-01-29T03:11:33.657Z,-3.88
2023-01-29T03:14:07.550Z,-3.94
2023-01-29T03:16:43.395Z,-4.01
2023-01-29T03:19:17.760Z,-4.14
2023-01-29T03:21:59.924Z,-4.17
2023-01-29T03:24:56.148Z,-4.24
2023-01-29T03:27:48.904Z,-4.27
2023-01-29T03:30:39.444Z,-4.27
2023-01-29T03:33:24.242Z,-4.28
2023-01-29T03:36:01.167Z,-4.29
2023-01-29T03:38:34.762Z,-4.32
2023-01-29T03:41:06.996Z,-4.37
2023-01-29T03:43:42.815Z,-4.41
2023-01-29T03:46:22.740Z,-4.53
2023-01-29T03:49:00.237Z,-4.54
2023-01-29T03:51:36.692Z,-4.61
2023-01-29T03:54:13.580Z,-4.69
2023-01-29T03:56:56.199Z,-4.81
2023-01-29T03:59:35.229Z,-4.79
2023-01-29T04:02:19.672Z,-4.85
2023-01-29T04:04:52.457Z,-4.89
2023-01-29T04:07:25.339Z,-4.90
2023-01-29T04:10:07.136Z,-4.89
2023-01-29T04:12:43.028Z,-4.87
2023-01-29T04:15:17.519Z,-4.93
2023-01-29T04:17:53.080Z,-4.85
2023-01-29T04:20:47.714Z,-4.84
2023-01-29T04:23:26.703Z,-4.84
2023-01-29T04:26:10.048Z,-4.85
2023-01-29T04:28:53.803Z,-4.86
2023-01-29T04:31:28.961Z,-4.87
2023-01-29T04:34:10.508Z,-4.87
2023-01-29T04:36:51.434Z,-4.85
2023-01-29T04:39:28.316Z,-4.80
2023-01-29T04:42:07.351Z,-4.73
2023-01-29T04:44:44.068Z,-4.64
2023-01-29T04:47:23.598Z,-4.54
2023-01-29T04:50:00.832Z,-4.49
2023-01-29T04:52:39.021Z,-4.49
2023-01-29T04:55:14.892Z,-4.49
2023-01-29T04:57:51.153Z,-4.53
2023-01-29T05:00:27.408Z,-4.58
2023-01-29T05:02:59.951Z,-4.66
2023-01-29T05:05:32.466Z,-4.75
2023-01-29T05:08:03.597Z,-4.83
2023-01-29T05:10:35.263Z,-4.92
2023-01-29T05:13:08.147Z,-4.99
2023-01-29T05:15:43.935Z,-5.03
2023-01-29T05:18:16.052Z,-5.06
2023-01-29T05:20:47.777Z,-5.11
2023-01-29T05:23:21.461Z,-5.16
2023-01-29T05:25:53.996Z,-5.21
2023-01-29T05:28:29.331Z,-5.25
2023-01-29T05:31:02.710Z,-5.31
2023-01-29T05:33:36.140Z,-5.36
2023-01-29T05:36:09.781Z,-5.43
2023-01-29T05:38:43.687Z,-5.49
2023-01-29T05:41:15.527Z,-5.53
2023-01-29T05:43:47.141Z,-5.53
2023-01-29T05:46:18.467Z,-5.53
2023-01-29T05:48:52.497Z,-5.57
2023-01-29T05:51:23.133Z,-5.56
2023-01-29T05:53:54.013Z,-5.60
2023-01-29T05:56:25.372Z,-5.64
2023-01-29T05:58:56.579Z,-5.69
2023-01-29T06:01:28.426Z,-5.73
2023-01-29T06:03:59.661Z,-5.77
2023-01-29T06:06:30.849Z,-5.80
2023-01-29T06:09:01.573Z,-5.83
2023-01-29T06:11:32.490Z,-5.82
2023-01-29T06:14:04.439Z,-5.82
2023-01-29T06:16:35.476Z,-5.73
2023-01-29T06:19:06.065Z,-5.69
2023-01-29T06:21:36.347Z,-5.66
2023-01-29T06:24:07.720Z,-5.63
2023-01-29T06:26:38.117Z,-5.63
2023-01-29T06:29:08.691Z,-5.63
2023-01-29T06:31:40.035Z,-5.65
2023-01-29T06:34:10.667Z,-5.66
2023-01-29T06:36:41.766Z,-5.65
2023-01-29T06:39:12.962Z,-5.62
2023-01-29T06:41:45.281Z,-5.59
2023-01-29T06:44:16.556Z,-5.58
2023-01-29T06:46:47.658Z,-5.58
2023-01-29T06:49:22.813Z,-5.60
2023-01-29T06:51:54.578Z,-5.65
2023-01-29T06:54:26.086Z,-5.64
2023-01-29T06:56:57.579Z,-5.67
2023-01-29T06:59:29.125Z,-5.71
2023-01-29T07:02:00.263Z,-5.74
2023-01-29T07:04:30.741Z,-5.77
2023-01-29T07:07:02.015Z,-5.81
2023-01-29T07:09:32.589Z,-5.81
2023-01-29T07:12:02.860Z,-5.79
2023-01-29T07:14:33.508Z,-5.76
2023-01-29T07:17:04.460Z,-5.75
2023-01-29T07:19:35.277Z,-5.75
2023-01-29T07:22:06.576Z,-5.79
2023-01-29T07:24:37.355Z,-5.77
2023-01-29T07:27:08.040Z,-5.79
2023-01-29T07:29:40.574Z,-5.79
2023-01-29T07:32:12.771Z,-5.78
2023-01-29T07:34:45.717Z,-5.78
2023-01-29T07:37:19.596Z,-5.75
2023-01-29T07:39:52.374Z,-5.68
2023-01-29T07:42:26.123Z,-5.60
2023-01-29T07:45:00.114Z,-5.52
2023-01-29T07:47:31.400Z,-5.44
2023-01-29T07:50:02.698Z,-5.35
2023-01-29T07:52:36.684Z,-5.24
2023-01-29T07:55:10.335Z,-5.13
2023-01-29T07:57:42.181Z,-5.01
2023-01-29T08:00:18.756Z,-4.93
2023-01-29T08:02:53.195Z,-4.76
2023-01-29T08:05:26.811Z,-4.63
2023-01-29T08:08:06.452Z,-4.50
2023-01-29T08:10:41.634Z,-4.37
2023-01-29T08:13:14.730Z,-4.24
2023-01-29T08:15:47.935Z,-4.16
2023-01-29T08:18:20.712Z,-4.06
2023-01-29T08:20:52.838Z,-3.96
2023-01-29T08:23:25.753Z,-3.88
2023-01-29T08:25:57.905Z,-3.78
2023-01-29T08:28:30.741Z,-3.67
2023-01-29T08:37:42.159Z,-3.12
2023-01-29T08:40:14.566Z,-3.06
2023-01-29T08:42:44.906Z,-2.98
2023-01-29T08:45:15.784Z,-2.93
2023-01-29T08:47:49.385Z,-2.84
2023-01-29T08:50:20.502Z,-2.75
2023-01-29T08:52:51.014Z,-2.72
2023-01-29T08:55:21.497Z,-2.63
2023-01-29T08:57:51.825Z,-2.58
2023-01-29T09:00:23.246Z,-2.53
2023-01-29T09:02:53.656Z,-2.47
2023-01-29T09:05:24.021Z,-2.42
2023-01-29T09:07:54.404Z,-2.36
2023-01-29T09:10:24.892Z,-2.31
2023-01-29T09:12:55.345Z,-2.24
2023-01-29T09:15:25.682Z,-2.20
2023-01-29T09:17:56.062Z,-2.17
2023-01-29T09:20:26.405Z,-2.08
2023-01-29T09:22:59.105Z,-1.97
2023-01-29T09:25:29.445Z,-1.87
2023-01-29T09:27:59.822Z,-1.80
2023-01-29T09:30:30.227Z,-1.75
2023-01-29T09:33:02.514Z,-1.66
2023-01-29T09:35:32.845Z,-1.65
2023-01-29T09:38:03.563Z,-1.64
2023-01-29T09:40:39.763Z,-1.68
2023-01-29T09:43:16.856Z,-1.83
2023-01-29T09:45:53.556Z,-1.88
2023-01-29T09:48:26.214Z,-1.94
2023-01-29T09:50:57.462Z,-2.01
2023-01-29T09:53:32.971Z,-2.04
2023-01-29T09:56:05.245Z,-2.06
2023-01-29T09:58:37.841Z,-2.03
2023-01-29T10:01:16.359Z,-2.01
2023-01-29T10:04:23.375Z,-2.01
2023-01-29T10:07:04.808Z,-2.02
2023-01-29T10:09:58.245Z,-2.00
2023-01-29T10:12:33.924Z,-1.95
2023-01-29T10:15:10.571Z,-1.88
2023-01-29T10:17:50.862Z,-1.91
2023-01-29T10:20:37.445Z,-1.79
2023-01-29T10:23:19.316Z,-1.76
2023-01-29T10:25:50.535Z,-1.77
2023-01-29T10:28:24.487Z,-1.72
2023-01-29T10:30:59.221Z,-1.61
2023-01-29T10:33:49.372Z,-1.50
2023-01-29T10:36:29.990Z,-1.33
2023-01-29T10:39:00.391Z,-1.17
2023-01-29T10:41:50.089Z,-0.97
2023-01-29T10:44:31.456Z,-0.81
2023-01-29T10:47:17.966Z,-0.70
2023-01-29T10:50:06.563Z,-0.59
2023-01-29T10:52:46.512Z,-0.51
2023-01-29T10:55:25.975Z,-0.36
2023-01-29T10:58:03.135Z,-0.16
2023-01-29T11:04:53.387Z,0.53
2023-01-29T11:08:04.402Z,0.73
2023-01-29T11:10:40.377Z,0.72
2023-01-29T11:13:16.082Z,0.60
2023-01-29T11:15:46.515Z,0.42
2023-01-29T11:18:17.521Z,0.21
2023-01-29T11:20:48.536Z,0.11
2023-01-29T11:23:29.497Z,0.13
2023-01-29T11:26:01.312Z,0.13
2023-01-29T11:28:43.241Z,0.28
2023-01-29T11:31:27.606Z,0.39
2023-01-29T11:34:06.971Z,0.86
2023-01-29T11:36:39.631Z,1.75
2023-01-29T11:39:18.880Z,2.52
2023-01-29T11:41:54.266Z,2.48
2023-01-29T11:44:30.760Z,2.14
2023-01-29T11:47:11.193Z,1.80
2023-01-29T11:49:45.548Z,1.73
2023-01-29T11:52:17.810Z,2.32
2023-01-29T11:54:50.314Z,3.08
2023-01-29T11:57:27.741Z,3.00
2023-01-29T11:59:59.500Z,2.95
2023-01-29T12:02:35.479Z,3.59
2023-01-29T12:05:16.902Z,4.25
2023-01-29T12:07:49.770Z,4.60
2023-01-29T12:10:35.592Z,4.89
2023-01-29T12:13:22.953Z,4.57
2023-01-29T12:16:10.680Z,4.20
2023-01-29T12:18:43.150Z,3.95
2023-01-29T12:21:18.080Z,3.87
2023-01-29T12:23:53.440Z,3.88
2023-01-29T12:26:28.702Z,3.69
2023-01-29T12:29:16.867Z,3.70
2023-01-29T12:31:53.363Z,3.58
2023-01-29T12:34:28.642Z,3.66
2023-01-29T12:37:02.171Z,3.59
2023-01-29T12:39:33.380Z,3.26
2023-01-29T12:42:06.947Z,3.02
2023-01-29T12:44:42.519Z,2.76
2023-01-29T12:47:18.552Z,2.58
2023-01-29T12:49:51.990Z,2.46
2023-01-29T12:52:27.779Z,2.32
2023-01-29T12:55:02.912Z,2.07
2023-01-29T12:57:38.241Z,1.67
2023-01-29T13:00:13.996Z,1.34
2023-01-29T13:02:49.569Z,1.02
2023-01-29T13:05:23.783Z,0.82
2023-01-29T13:07:58.513Z,0.68
2023-01-29T13:10:34.063Z,0.51
2023-01-29T13:13:08.182Z,0.40
2023-01-29T13:15:41.305Z,0.41
2023-01-29T13:18:34.330Z,0.61
2023-01-29T13:21:06.315Z,1.03
2023-01-29T13:23:40.844Z,1.24
2023-01-29T13:26:12.971Z,1.46
2023-01-29T13:28:47.349Z,1.65
2023-01-29T13:31:27.906Z,1.77
2023-01-29T13:34:03.504Z,1.72
2023-01-29T13:36:34.324Z,1.89
2023-01-29T13:39:06.872Z,1.82
2023-01-29T13:41:39.851Z,1.64
2023-01-29T13:44:19.551Z,1.37
2023-01-29T13:46:55.028Z,1.15
2023-01-29T13:49:30.356Z,0.93
2023-01-29T13:52:01.711Z,0.73
2023-01-29T13:54:32.112Z,0.57
2023-01-29T13:57:03.884Z,0.42
2023-01-29T13:59:57.551Z,0.17
2023-01-29T14:02:29.585Z,-0.13
2023-01-29T14:05:30.951Z,-0.37
2023-01-29T14:08:02.565Z,-0.62
2023-01-29T14:10:34.294Z,-0.83
2023-01-29T14:13:30.329Z,-0.83
2023-01-29T14:16:36.239Z,-0.91
2023-01-29T14:19:07.772Z,-0.99
2023-01-29T14:21:39.616Z,-1.07
2023-01-29T14:24:19.427Z,-1.17
2023-01-29T14:32:54.219Z,-1.37
2023-01-29T14:35:26.770Z,-1.47
2023-01-29T14:37:59.156Z,-1.55
2023-01-29T14:40:30.949Z,-1.64
2023-01-29T14:43:04.821Z,-1.71
2023-01-29T14:45:35.980Z,-1.81
2023-01-29T14:48:33.953Z,-1.86
2023-01-29T14:51:10.900Z,-1.89
2023-01-29T14:53:51.326Z,-1.92
2023-01-29T14:56:25.939Z,-1.96
2023-01-29T14:59:00.875Z,-2.01
2023-01-29T15:01:35.432Z,-2.04
2023-01-29T15:04:08.419Z,-2.07
2023-01-29T15:06:39.884Z,-2.11
2023-01-29T15:09:15.648Z,-2.15
2023-01-29T15:11:53.031Z,-2.20
2023-01-29T15:14:32.497Z,-2.24
2023-01-29T15:17:19.819Z,-2.26
2023-01-29T15:19:50.879Z,-2.26
2023-01-29T15:22:23.341Z,-2.27
2023-01-29T15:25:08.771Z,-2.23
2023-01-29T15:27:43.915Z,-2.29
2023-01-29T15:30:19.378Z,-2.28
2023-01-29T15:32:50.157Z,-2.32
2023-01-29T15:35:30.314Z,-2.38
2023-01-29T15:38:05.939Z,-2.42
2023-01-29T15:40:36.712Z,-2.46
2023-01-29T15:43:22.597Z,-2.51
2023-01-29T15:45:54.037Z,-2.55
2023-01-29T15:48:31.987Z,-2.57
2023-01-29T15:51:05.173Z,-2.61
2023-01-29T15:53:38.540Z,-2.59
2023-01-29T15:56:13.392Z,-2.60
2023-01-29T15:58:44.358Z,-2.64
2023-01-29T16:01:15.678Z,-2.70
2023-01-29T16:03:46.673Z,-2.75
2023-01-29T16:06:17.531Z,-2.80
2023-01-29T16:08:51.984Z,-2.86
2023-01-29T16:11:22.872Z,-2.90
2023-01-29T16:13:54.091Z,-3.00
2023-01-29T16:16:27.863Z,-3.02
2023-01-29T16:19:00.688Z,-3.07
2023-01-29T16:21:36.297Z,-3.11
2023-01-29T16:24:11.952Z,-3.14
2023-01-29T16:27:00.275Z,-3.19
2023-01-29T16:29:38.973Z,-3.26
2023-01-29T16:32:13.857Z,-3.33
2023-01-29T16:34:48.078Z,-3.39
2023-01-29T16:37:24.001Z,-3.48
2023-01-29T16:39:54.805Z,-3.59
2023-01-29T16:42:28.507Z,-3.61
2023-01-29T16:45:01.522Z,-3.68
2023-01-29T16:47:34.939Z,-3.79
2023-01-29T16:50:05.189Z,-3.81
2023-01-29T16:52:36.474Z,-3.85
2023-01-29T16:55:26.763Z,-3.89
2023-01-29T16:57:57.841Z,-3.95
2023-01-29T17:00:29.015Z,-4.02
2023-01-29T17:03:04.323Z,-4.08
2023-01-29T17:05:37.287Z,-4.14
2023-01-29T17:08:06.792Z,-4.19
2023-01-29T17:10:37.303Z,-4.24
2023-01-29T17:13:09.931Z,-4.29
2023-01-29T17:15:48.936Z,-4.34
2023-01-29T17:18:21.413Z,-4.36
2023-01-29T17:20:53.004Z,-4.35
2023-01-29T17:23:23.993Z,-4.37
2023-01-29T17:25:54.369Z,-4.38
2023-01-29T17:28:24.817Z,-4.42
2023-01-29T17:31:05.896Z,-4.45
2023-01-29T17:33:39.033Z,-4.50
2023-01-29T17:36:13.883Z,-4.54
2023-01-29T17:39:00.443Z,-4.57
2023-01-29T17:41:32.387Z,-4.59
2023-01-29T17:44:03.152Z,-4.62
2023-01-29T17:46:33.748Z,-4.67
2023-01-29T17:49:04.580Z,-4.67
2023-01-29T17:51:35.416Z,-4.65
2023-01-29T17:54:06.454Z,-4.63
2023-01-29T17:56:37.016Z,-4.62
2023-01-29T17:59:14.391Z,-4.64
2023-01-29T18:01:45.185Z,-4.66
2023-01-29T18:04:15.805Z,-4.70
2023-01-29T18:06:48.326Z,-4.74
2023-01-29T18:09:20.799Z,-4.76
2023-01-29T18:11:52.033Z,-4.80
2023-01-29T18:14:22.943Z,-4.82
2023-01-29T18:16:53.402Z,-4.81
2023-01-29T18:19:28.242Z,-4.80
2023-01-29T18:21:58.635Z,-4.81
2023-01-29T18:24:30.091Z,-4.83
2023-01-29T18:27:01.110Z,-4.85
2023-01-29T18:29:31.639Z,-4.88
2023-01-29T18:32:02.106Z,-4.92
2023-01-29T18:34:32.803Z,-4.97
2023-01-29T18:37:03.574Z,-5.01
2023-01-29T18:39:34.326Z,-5.04
2023-01-29T18:42:04.907Z,-5.05
2023-01-29T18:44:35.490Z,-5.05
2023-01-29T18:47:05.958Z,-5.04
2023-01-29T18:49:38.865Z,-5.03
2023-01-29T18:52:08.081Z,-5.03
2023-01-29T18:54:38.553Z,-5.02
2023-01-29T18:57:14.525Z,-5.03
2023-01-29T18:59:59.353Z,-5.03
2023-01-29T19:02:30.565Z,-5.02
2023-01-29T19:05:01.095Z,-5.03
2023-01-29T19:07:31.542Z,-5.02
2023-01-29T19:10:04.792Z,-5.00
2023-01-29T19:12:35.613Z,-5.00
2023-01-29T19:15:07.450Z,-4.96
2023-01-29T19:17:38.449Z,-4.89
2023-01-29T19:20:11.514Z,-4.86
2023-01-29T19:22:42.584Z,-4.84
2023-01-29T19:25:13.748Z,-4.79
2023-01-29T19:27:44.172Z,-4.75
2023-01-29T19:30:15.922Z,-4.67
2023-01-29T19:32:46.525Z,-4.66
2023-01-29T19:35:17.285Z,-4.66
2023-01-29T19:37:48.043Z,-4.66
2023-01-29T19:40:19.740Z,-4.65
2023-01-29T19:42:50.399Z,-4.64
2023-01-29T19:45:49.734Z,-4.61
2023-01-29T19:48:20.267Z,-4.56
2023-01-29T19:50:55.479Z,-4.51
2023-01-29T19:53:26.239Z,-4.45
2023-01-29T19:56:06.178Z,-4.45
2023-01-29T19:58:37.051Z,-4.39
2023-01-29T20:01:09.350Z,-4.40
2023-01-29T20:03:42.008Z,-4.40
2023-01-29T20:06:12.458Z,-4.43
2023-01-29T20:08:42.817Z,-4.39
2023-01-29T20:11:14.705Z,-4.38
2023-01-29T20:13:47.181Z,-4.34
2023-01-29T20:16:18.288Z,-4.26
2023-01-29T20:18:49.136Z,-4.21
2023-01-29T20:21:22.699Z,-4.17
2023-01-29T20:23:53.903Z,-4.16
2023-01-29T20:26:24.386Z,-4.15
2023-01-29T20:28:54.963Z,-4.12
2023-01-29T20:31:25.531Z,-4.10
2023-01-29T20:34:10.775Z,-4.03
2023-01-29T20:36:41.399Z,-3.96
2023-01-29T20:39:12.095Z,-3.89
2023-01-29T20:41:42.738Z,-3.84
2023-01-29T20:44:13.252Z,-3.80
2023-01-29T20:46:43.751Z,-3.81
2023-01-29T20:49:14.365Z,-3.75
2023-01-29T20:51:45.201Z,-3.75
2023-01-29T20:54:15.615Z,-3.76
2023-01-29T20:56:47.254Z,-3.76
2023-01-29T20:59:18.276Z,-3.73
2023-01-29T21:01:49.539Z,-3.73
2023-01-29T21:04:20.093Z,-3.64
2023-01-29T21:06:50.780Z,-3.63
2023-01-29T21:09:21.311Z,-3.60
2023-01-29T21:11:51.789Z,-3.57
2023-01-29T21:14:22.641Z,-3.52
2023-01-29T21:16:53.280Z,-3.51
2023-01-29T21:19:23.755Z,-3.42
2023-01-29T21:21:54.546Z,-3.35
2023-01-29T21:24:25.728Z,-3.26
2023-01-29T21:26:56.408Z,-3.20
2023-01-29T21:29:26.823Z,-3.16
2023-01-29T21:31:57.316Z,-3.13
2023-01-29T21:34:28.329Z,-3.13
2023-01-29T21:36:58.833Z,-3.08
2023-01-29T21:39:29.413Z,-3.05
2023-01-29T21:42:25.471Z,-3.04
2023-01-29T21:44:55.952Z,-3.01
2023-01-29T21:47:26.388Z,-2.93
2023-01-29T21:49:56.747Z,-2.87
2023-01-29T21:52:27.131Z,-2.85
2023-01-29T21:54:57.574Z,-2.83
2023-01-29T21:57:27.989Z,-2.82
2023-01-29T21:59:59.468Z,-2.81
2023-01-29T22:02:32.231Z,-2.81
2023-01-29T22:05:17.548Z,-2.79
2023-01-29T22:07:48.650Z,-2.75
2023-01-29T22:10:21.017Z,-2.72
2023-01-29T22:12:52.187Z,-2.71
2023-01-29T22:15:24.159Z,-2.72
2023-01-29T22:17:54.721Z,-2.73
2023-01-29T22:20:30.201Z,-2.74
2023-01-29T22:23:01.422Z,-2.75
2023-01-29T22:25:32.475Z,-2.74
2023-01-29T22:28:03.214Z,-2.71
2023-01-29T22:30:33.899Z,-2.67
2023-01-29T22:33:04.494Z,-2.64
2023-01-29T22:35:35.066Z,-2.66
2023-01-29T22:38:05.804Z,-2.62
2023-01-29T22:40:36.612Z,-2.63
2023-01-29T22:43:07.571Z,-2.66
2023-01-29T22:45:41.273Z,-2.64
2023-01-29T22:48:12.334Z,-2.65
2023-01-29T22:50:43.004Z,-2.63
2023-01-29T22:53:13.790Z,-2.60
2023-01-29T22:55:44.305Z,-2.57
2023-01-29T22:58:14.555Z,-2.55
2023-01-29T23:00:44.980Z,-2.54
2023-01-29T23:03:15.456Z,-2.53
2023-01-29T23:05:45.939Z,-2.53
2023-01-29T23:08:16.516Z,-2.53
2023-01-29T23:10:46.849Z,-2.55
2023-01-29T23:13:17.620Z,-2.53
2023-01-29T23:15:48.084Z,-2.53
2023-01-29T23:18:18.662Z,-2.52
2023-01-29T23:20:49.238Z,-2.48
2023-01-29T23:23:19.663Z,-2.45
2023-01-29T23:26:07.743Z,-2.42
2023-01-29T23:28:38.182Z,-2.42
2023-01-29T23:31:08.834Z,-2.42
2023-01-29T23:33:39.317Z,-2.42
2023-01-29T23:36:11.048Z,-2.43
2023-01-29T23:38:41.378Z,-2.43
2023-01-29T23:41:11.808Z,-2.45
2023-01-29T23:43:42.233Z,-2.44
2023-01-29T23:46:12.712Z,-2.41
2023-01-29T23:48:43.170Z,-2.37
2023-01-29T23:51:13.467Z,-2.36
2023-01-29T23:53:44.151Z,-2.37
2023-01-29T23:56:14.676Z,-2.39
2023-01-29T23:58:46.021Z,-2.38
